createdAt,value
2023-02-10T00:01:16.723Z,76.60
2023-02-10T00:03:44.130Z,76.60
2023-02-10T00:06:12.447Z,76.50
2023-02-10T00:08:39.854Z,76.90
2023-02-10T00:11:11.051Z,76.80
2023-02-10T00:13:39.566Z,76.80
2023-02-10T00:16:09.089Z,76.80
2023-02-10T00:18:35.965Z,76.80
2023-02-10T00:21:09.990Z,76.70
2023-02-10T00:23:37.199Z,76.70
2023-02-10T00:26:05.934Z,76.60
2023-02-10T00:28:34.201Z,76.40
2023-02-10T00:31:06.150Z,76.00
2023-02-10T00:33:32.916Z,75.90
2023-02-10T00:35:59.840Z,76.00
2023-02-10T00:38:26.684Z,76.30
2023-02-10T00:40:53.477Z,76.50
2023-02-10T00:43:20.297Z,76.50
2023-02-10T00:45:47.362Z,76.80
2023-02-10T00:48:14.647Z,76.70
2023-02-10T00:50:41.428Z,76.50
2023-02-10T00:53:08.213Z,76.50
2023-02-10T00:55:35.052Z,76.60
2023-02-10T00:58:03.003Z,76.50
2023-02-10T01:00:29.988Z,76.70
2023-02-10T01:02:56.835Z,76.60
2023-02-10T01:05:23.848Z,76.60
2023-02-10T01:07:50.703Z,76.60
2023-02-10T01:10:17.633Z,76.70
2023-02-10T01:12:46.390Z,76.60
2023-02-10T01:15:13.268Z,76.70
2023-02-10T01:17:41.047Z,76.70
2023-02-10T01:20:08.327Z,76.70
2023-02-10T01:22:36.634Z,76.80
2023-02-10T01:25:05.515Z,76.70
2023-02-10T01:27:32.362Z,76.70
2023-02-10T01:29:59.094Z,76.80
2023-02-10T01:32:26.029Z,76.80
2023-02-10T01:34:52.788Z,76.50
2023-02-10T01:37:19.529Z,76.40
2023-02-10T01:39:46.411Z,76.20
2023-02-10T01:42:15.321Z,76.20
2023-02-10T01:44:42.118Z,76.10
2023-02-10T01:47:09.828Z,76.30
2023-02-10T01:49:43.551Z,76.40
2023-02-10T01:52:17.792Z,76.40
2023-02-10T01:54:51.171Z,76.30
2023-02-10T01:57:18.887Z,76.10
2023-02-10T01:59:46.243Z,75.80
2023-02-10T02:02:15.121Z,75.60
2023-02-10T02:04:55.265Z,75.60
2023-02-10T02:07:26.523Z,75.70
2023-02-10T02:09:54.588Z,75.90
2023-02-10T02:13:04.129Z,75.90
2023-02-10T02:15:43.410Z,75.90
2023-02-10T02:18:23.150Z,75.60
2023-02-10T02:21:33.700Z,75.60
2023-02-10T02:24:12.652Z,76.00
2023-02-10T02:26:42.449Z,76.60
2023-02-10T02:29:46.648Z,76.90
2023-02-10T02:32:20.676Z,77.00
2023-02-10T02:35:03.353Z,76.70
2023-02-10T02:37:32.585Z,76.60
2023-02-10T02:39:59.621Z,76.70
2023-02-10T02:42:28.826Z,77.00
2023-02-10T02:45:03.957Z,77.20
2023-02-10T02:47:49.659Z,77.20
2023-02-10T02:50:40.214Z,77.40
2023-02-10T02:53:22.453Z,77.70
2023-02-10T02:56:30.438Z,77.80
2023-02-10T02:59:12.530Z,77.60
2023-02-10T03:01:45.537Z,77.80
2023-02-10T03:04:14.564Z,77.90
2023-02-10T03:06:41.413Z,77.80
2023-02-10T03:09:08.406Z,77.70
2023-02-10T03:11:35.287Z,77.90
2023-02-10T03:14:02.497Z,78.40
2023-02-10T03:16:29.280Z,78.40
2023-02-10T03:18:56.102Z,78.30
2023-02-10T03:21:23.185Z,78.30
2023-02-10T03:23:49.988Z,78.30
2023-02-10T03:26:17.416Z,78.50
2023-02-10T03:28:45.097Z,78.50
2023-02-10T03:31:11.925Z,78.40
2023-02-10T03:33:38.745Z,78.60
2023-02-10T03:36:05.889Z,78.70
2023-02-10T03:38:32.865Z,78.60
2023-02-10T03:40:59.709Z,78.70
2023-02-10T03:43:26.540Z,78.90
2023-02-10T03:45:53.451Z,78.80
2023-02-10T03:48:20.404Z,78.90
2023-02-10T03:50:49.024Z,78.80
2023-02-10T03:53:15.893Z,78.80
2023-02-10T03:55:42.702Z,78.90
2023-02-10T03:58:09.526Z,79.20
2023-02-10T04:00:36.877Z,79.10
2023-02-10T04:03:03.772Z,79.20
2023-02-10T04:05:30.529Z,79.30
2023-02-10T04:07:57.469Z,79.30
2023-02-10T04:10:24.307Z,79.30
2023-02-10T04:12:51.312Z,79.30
2023-02-10T04:15:18.511Z,79.20
2023-02-10T04:17:45.511Z,79.30
2023-02-10T04:20:16.537Z,79.30
2023-02-10T04:22:44.340Z,79.40
2023-02-10T04:25:11.601Z,79.50
2023-02-10T04:27:38.442Z,80.00
2023-02-10T04:30:05.982Z,79.90
2023-02-10T04:32:32.848Z,79.90
2023-02-10T04:34:59.751Z,79.90
2023-02-10T04:37:26.609Z,80.00
2023-02-10T04:39:53.580Z,80.00
2023-02-10T04:42:20.490Z,80.10
2023-02-10T04:44:47.418Z,80.10
2023-02-10T04:47:14.219Z,80.20
2023-02-10T04:49:41.004Z,80.00
2023-02-10T04:52:07.839Z,80.10
2023-02-10T04:54:34.725Z,80.20
2023-02-10T04:57:01.556Z,80.20
2023-02-10T04:59:28.401Z,80.20
2023-02-10T05:01:55.226Z,80.30
2023-02-10T05:04:22.906Z,80.40
2023-02-10T05:06:49.684Z,80.30
2023-02-10T05:09:16.577Z,80.10
2023-02-10T05:11:44.708Z,80.10
2023-02-10T05:14:11.515Z,80.00
2023-02-10T05:16:38.399Z,80.30
2023-02-10T05:19:05.263Z,80.60
2023-02-10T05:21:32.114Z,80.50
2023-02-10T05:23:59.812Z,80.60
2023-02-10T05:26:26.611Z,80.80
2023-02-10T05:28:53.413Z,80.90
2023-02-10T05:31:20.561Z,81.00
2023-02-10T05:33:47.682Z,81.00
2023-02-10T05:36:14.472Z,80.70
2023-02-10T05:39:01.313Z,80.60
2023-02-10T05:41:28.116Z,80.70
2023-02-10T05:43:54.837Z,81.10
2023-02-10T05:46:21.698Z,81.20
2023-02-10T05:48:48.487Z,81.10
2023-02-10T05:51:15.299Z,80.90
2023-02-10T05:53:42.034Z,80.60
2023-02-10T05:56:08.994Z,80.50
2023-02-10T05:58:35.968Z,80.40
2023-02-10T06:01:08.518Z,80.40
2023-02-10T06:03:35.628Z,80.30
2023-02-10T06:06:02.453Z,80.40
2023-02-10T06:08:29.439Z,80.60
2023-02-10T06:10:56.200Z,80.60
2023-02-10T06:13:23.317Z,80.50
2023-02-10T06:15:50.453Z,80.50
2023-02-10T06:18:17.516Z,80.50
2023-02-10T06:20:46.972Z,80.50
2023-02-10T06:23:14.799Z,80.70
2023-02-10T06:25:41.796Z,80.60
2023-02-10T06:28:08.695Z,80.50
2023-02-10T06:30:35.738Z,80.50
2023-02-10T06:33:02.926Z,80.50
2023-02-10T06:35:29.709Z,80.50
2023-02-10T06:37:56.611Z,80.50
2023-02-10T06:40:23.358Z,80.50
2023-02-10T06:42:50.198Z,80.50
2023-02-10T06:45:17.039Z,80.60
2023-02-10T06:47:43.889Z,80.50
2023-02-10T06:50:10.732Z,80.50
2023-02-10T06:52:39.111Z,80.50
2023-02-10T06:55:07.529Z,80.40
2023-02-10T06:57:36.452Z,80.40
2023-02-10T07:00:10.799Z,80.30
2023-02-10T07:02:38.032Z,80.30
2023-02-10T07:05:09.279Z,80.30
2023-02-10T07:07:36.788Z,80.30
2023-02-10T07:10:04.412Z,80.30
2023-02-10T07:12:31.407Z,80.40
2023-02-10T07:14:58.279Z,80.40
2023-02-10T07:17:25.194Z,80.40
2023-02-10T07:19:52.024Z,80.50
2023-02-10T07:22:19.028Z,80.60
2023-02-10T07:24:45.778Z,80.60
2023-02-10T07:27:12.572Z,80.60
2023-02-10T07:29:39.443Z,80.70
2023-02-10T07:32:06.358Z,80.80
2023-02-10T07:34:35.154Z,80.70
2023-02-10T07:37:02.069Z,80.80
2023-02-10T07:39:29.281Z,80.80
2023-02-10T07:41:56.285Z,80.90
2023-02-10T07:44:31.039Z,81.00
2023-02-10T07:46:57.890Z,81.00
2023-02-10T07:49:25.556Z,80.90
2023-02-10T07:51:52.396Z,80.70
2023-02-10T07:54:19.301Z,80.40
2023-02-10T07:56:46.170Z,80.40
2023-02-10T07:59:13.065Z,80.20
2023-02-10T08:01:43.978Z,80.10
2023-02-10T08:04:11.337Z,80.00
2023-02-10T08:06:38.310Z,79.90
2023-02-10T08:09:05.299Z,79.80
2023-02-10T08:11:33.092Z,79.80
2023-02-10T08:14:02.149Z,79.70
2023-02-10T08:16:29.205Z,79.80
2023-02-10T08:18:58.862Z,79.90
2023-02-10T08:21:27.458Z,80.00
2023-02-10T08:23:55.690Z,80.00
2023-02-10T08:26:23.592Z,80.10
2023-02-10T08:28:50.742Z,80.00
2023-02-10T08:31:18.070Z,79.90
2023-02-10T08:33:46.768Z,79.90
2023-02-10T08:36:16.194Z,79.90
2023-02-10T08:38:43.572Z,80.20
2023-02-10T08:41:10.502Z,80.10
2023-02-10T08:43:37.461Z,79.90
2023-02-10T08:46:04.793Z,80.30
2023-02-10T08:48:31.847Z,80.30
2023-02-10T08:50:59.656Z,80.90
2023-02-10T08:53:26.967Z,81.50
2023-02-10T08:56:02.381Z,82.10
2023-02-10T08:58:29.359Z,83.40
2023-02-10T09:00:56.206Z,82.00
2023-02-10T09:03:23.738Z,81.60
2023-02-10T09:05:50.978Z,80.30
2023-02-10T09:08:19.028Z,80.10
2023-02-10T09:10:47.166Z,80.20
2023-02-10T09:13:14.316Z,80.60
2023-02-10T09:15:43.380Z,80.50
2023-02-10T09:18:12.531Z,79.80
2023-02-10T09:20:39.922Z,79.60
2023-02-10T09:23:06.884Z,79.00
2023-02-10T09:25:34.026Z,78.70
2023-02-10T09:28:00.924Z,75.80
2023-02-10T09:30:28.236Z,76.70
2023-02-10T09:32:55.467Z,78.20
2023-02-10T09:35:22.360Z,78.50
2023-02-10T09:37:49.370Z,77.90
2023-02-10T09:40:31.227Z,75.30
2023-02-10T09:43:19.792Z,71.90
2023-02-10T09:45:53.215Z,72.60
2023-02-10T09:48:52.177Z,72.20
2023-02-10T09:51:52.798Z,69.80
2023-02-10T09:54:20.539Z,70.00
2023-02-10T09:56:48.202Z,67.30
2023-02-10T09:59:22.622Z,68.30
2023-02-10T10:01:58.469Z,69.10
2023-02-10T10:04:27.168Z,67.30
2023-02-10T10:07:11.231Z,65.60
2023-02-10T10:10:01.779Z,63.00
2023-02-10T10:12:29.118Z,62.30
2023-02-10T10:14:56.000Z,62.10
2023-02-10T10:17:38.119Z,60.40
2023-02-10T10:20:32.422Z,60.50
2023-02-10T10:23:18.492Z,59.60
2023-02-10T10:26:01.186Z,59.90
2023-02-10T10:28:49.207Z,59.10
2023-02-10T10:31:41.016Z,58.30
2023-02-10T10:34:17.985Z,56.90
2023-02-10T10:36:47.949Z,56.00
2023-02-10T10:39:46.573Z,56.20
2023-02-10T10:42:35.835Z,56.00
2023-02-10T10:45:14.911Z,53.50
2023-02-10T10:48:04.733Z,53.10
2023-02-10T10:50:31.684Z,52.90
2023-02-10T10:52:58.967Z,51.00
2023-02-10T10:55:41.344Z,51.00
2023-02-10T10:58:31.173Z,52.20
2023-02-10T11:01:00.428Z,51.50
2023-02-10T11:03:27.518Z,51.10
2023-02-10T11:06:13.129Z,51.60
2023-02-10T11:08:43.476Z,51.00
2023-02-10T11:11:27.445Z,50.30
2023-02-10T11:13:59.058Z,49.50
2023-02-10T11:16:26.252Z,48.60
2023-02-10T11:18:53.094Z,48.80
2023-02-10T11:21:20.254Z,48.50
2023-02-10T11:23:54.490Z,48.40
2023-02-10T11:26:26.570Z,47.50
2023-02-10T11:28:54.604Z,47.70
2023-02-10T11:31:33.513Z,47.50
2023-02-10T11:34:21.525Z,47.40
2023-02-10T11:36:52.126Z,46.60
2023-02-10T11:39:27.873Z,46.60
2023-02-10T11:41:55.639Z,46.60
2023-02-10T11:44:32.652Z,46.40
2023-02-10T11:47:00.816Z,45.20
2023-02-10T11:49:32.459Z,45.60
2023-02-10T11:52:02.615Z,46.60
2023-02-10T11:54:29.809Z,46.00
2023-02-10T11:57:29.437Z,45.10
2023-02-10T12:00:13.386Z,45.70
2023-02-10T12:03:01.096Z,46.10
2023-02-10T12:05:51.763Z,46.30
2023-02-10T12:08:40.250Z,47.20
2023-02-10T12:11:39.457Z,46.90
2023-02-10T12:14:21.339Z,46.10
2023-02-10T12:16:57.132Z,46.30
2023-02-10T12:19:41.043Z,45.90
2023-02-10T12:22:36.277Z,45.10
2023-02-10T12:25:19.833Z,45.40
2023-02-10T12:27:52.536Z,44.70
2023-02-10T12:30:34.446Z,44.90
2023-02-10T12:33:12.980Z,45.20
2023-02-10T12:36:12.869Z,45.10
2023-02-10T12:38:55.557Z,44.50
2023-02-10T12:41:58.040Z,44.60
2023-02-10T12:45:00.107Z,44.90
2023-02-10T12:47:41.362Z,45.20
2023-02-10T12:50:36.387Z,46.20
2023-02-10T12:53:25.115Z,46.20
2023-02-10T12:56:13.036Z,46.60
2023-02-10T12:58:47.908Z,46.50
2023-02-10T13:01:41.711Z,46.30
2023-02-10T13:04:30.872Z,46.30
2023-02-10T13:07:02.797Z,46.40
2023-02-10T13:09:44.891Z,47.10
2023-02-10T13:12:37.251Z,48.40
2023-02-10T13:15:35.871Z,48.50
2023-02-10T13:18:03.670Z,48.20
2023-02-10T13:20:58.379Z,48.60
2023-02-10T13:23:45.611Z,49.00
2023-02-10T13:26:34.192Z,49.20
2023-02-10T13:29:16.595Z,48.70
2023-02-10T13:31:55.368Z,48.90
2023-02-10T13:34:27.943Z,47.90
2023-02-10T13:37:00.517Z,48.10
2023-02-10T13:39:31.345Z,48.60
2023-02-10T13:42:22.386Z,49.30
2023-02-10T13:45:01.647Z,50.00
2023-02-10T13:47:34.204Z,50.10
2023-02-10T13:50:42.249Z,49.30
2023-02-10T13:53:40.298Z,49.70
2023-02-10T13:56:27.165Z,50.00
2023-02-10T13:59:04.225Z,50.30
2023-02-10T14:01:47.488Z,51.00
2023-02-10T14:04:20.120Z,51.10
2023-02-10T14:06:49.774Z,51.30
2023-02-10T14:09:38.102Z,52.10
2023-02-10T14:12:23.597Z,52.80
2023-02-10T14:14:50.536Z,53.20
2023-02-10T14:17:30.378Z,53.20
2023-02-10T14:19:58.138Z,53.30
2023-02-10T14:22:39.023Z,53.10
2023-02-10T14:25:36.913Z,53.30
2023-02-10T14:28:04.993Z,53.40
2023-02-10T14:30:40.614Z,53.90
2023-02-10T14:33:22.090Z,55.00
2023-02-10T14:35:54.868Z,55.10
2023-02-10T14:38:34.741Z,54.90
2023-02-10T14:41:15.187Z,55.00
2023-02-10T14:43:50.144Z,55.40
2023-02-10T14:46:27.251Z,55.00
2023-02-10T14:49:14.432Z,54.80
2023-02-10T14:51:47.038Z,54.40
2023-02-10T14:54:21.974Z,54.00
2023-02-10T14:57:02.681Z,53.40
2023-02-10T14:59:32.246Z,53.30
2023-02-10T15:02:15.541Z,53.50
2023-02-10T15:04:46.034Z,53.90
2023-02-10T15:07:22.421Z,54.80
2023-02-10T15:09:49.518Z,55.60
2023-02-10T15:12:19.090Z,56.20
2023-02-10T15:14:52.345Z,56.80
2023-02-10T15:17:41.256Z,57.70
2023-02-10T15:20:28.224Z,58.10
2023-02-10T15:22:58.986Z,58.90
2023-02-10T15:25:28.788Z,59.20
2023-02-10T15:27:56.696Z,60.30
2023-02-10T15:30:28.317Z,60.30
2023-02-10T15:32:57.793Z,60.80
2023-02-10T15:35:25.718Z,61.10
2023-02-10T15:37:55.572Z,61.40
2023-02-10T15:40:28.220Z,61.80
2023-02-10T15:43:23.122Z,62.10
2023-02-10T15:45:50.170Z,62.50
2023-02-10T15:48:30.610Z,62.90
2023-02-10T15:51:06.441Z,63.00
2023-02-10T15:53:33.354Z,63.40
2023-02-10T15:56:00.190Z,63.60
2023-02-10T15:58:26.950Z,64.00
2023-02-10T16:00:53.791Z,64.00
2023-02-10T16:03:20.652Z,64.30
2023-02-10T16:05:47.600Z,64.70
2023-02-10T16:08:21.975Z,65.00
2023-02-10T16:10:49.575Z,65.40
2023-02-10T16:13:17.316Z,65.30
2023-02-10T16:15:47.895Z,65.70
2023-02-10T16:18:18.785Z,66.00
2023-02-10T16:20:46.679Z,66.10
2023-02-10T16:23:15.109Z,66.00
2023-02-10T16:25:42.148Z,65.90
2023-02-10T16:28:13.699Z,66.40
2023-02-10T16:30:40.676Z,66.60
2023-02-10T16:33:07.548Z,67.10
2023-02-10T16:35:34.508Z,67.10
2023-02-10T16:38:08.105Z,67.80
2023-02-10T16:40:45.336Z,67.60
2023-02-10T16:43:13.760Z,68.00
2023-02-10T16:45:40.618Z,68.00
2023-02-10T16:48:07.586Z,68.10
2023-02-10T16:50:38.042Z,68.40
2023-02-10T16:53:06.641Z,68.70
2023-02-10T16:55:33.975Z,68.50
2023-02-10T16:58:02.234Z,68.30
2023-02-10T17:00:29.288Z,68.60
2023-02-10T17:02:56.632Z,68.80
2023-02-10T17:05:23.966Z,68.90
2023-02-10T17:07:50.915Z,69.10
2023-02-10T17:10:27.158Z,69.30
2023-02-10T17:12:55.262Z,69.30
2023-02-10T17:15:22.771Z,69.50
2023-02-10T17:17:50.280Z,69.50
2023-02-10T17:20:30.352Z,69.50
2023-02-10T17:22:58.107Z,69.60
2023-02-10T17:25:25.631Z,69.30
2023-02-10T17:27:53.331Z,69.30
2023-02-10T17:30:22.506Z,69.30
2023-02-10T17:32:49.472Z,69.20
2023-02-10T17:35:23.185Z,69.40
2023-02-10T17:37:52.336Z,69.30
2023-02-10T17:40:25.420Z,69.30
2023-02-10T17:42:53.047Z,69.30
2023-02-10T17:45:20.162Z,69.30
2023-02-10T17:47:48.248Z,69.30
2023-02-10T17:50:16.963Z,69.30
2023-02-10T17:52:43.824Z,69.30
2023-02-10T17:55:21.836Z,69.50
2023-02-10T17:57:49.443Z,69.40
2023-02-10T18:00:17.076Z,69.50
2023-02-10T18:02:43.995Z,69.50
2023-02-10T18:05:11.705Z,69.50
2023-02-10T18:07:39.034Z,69.60
2023-02-10T18:10:07.382Z,69.70
2023-02-10T18:12:34.553Z,69.80
2023-02-10T18:15:01.418Z,69.80
2023-02-10T18:17:28.399Z,69.90
2023-02-10T18:19:55.400Z,70.00
2023-02-10T18:22:23.136Z,70.00
2023-02-10T18:24:49.943Z,70.00
2023-02-10T18:27:16.890Z,70.00
2023-02-10T18:29:44.200Z,70.10
2023-02-10T18:32:11.147Z,70.30
2023-02-10T18:34:38.088Z,70.40
2023-02-10T18:37:04.973Z,70.70
2023-02-10T18:39:31.921Z,70.90
2023-02-10T18:41:59.081Z,71.10
2023-02-10T18:44:27.012Z,71.40
2023-02-10T18:46:53.973Z,71.50
2023-02-10T18:49:21.010Z,71.60
2023-02-10T18:51:53.666Z,71.60
2023-02-10T18:54:23.741Z,71.80
2023-02-10T18:56:50.569Z,71.90
2023-02-10T18:59:18.938Z,72.10
2023-02-10T19:01:45.727Z,72.30
2023-02-10T19:04:12.554Z,72.50
2023-02-10T19:06:39.432Z,72.50
2023-02-10T19:09:06.500Z,72.50
2023-02-10T19:11:33.444Z,72.50
2023-02-10T19:14:00.196Z,72.60
2023-02-10T19:16:28.462Z,72.80
2023-02-10T19:18:55.646Z,72.70
2023-02-10T19:21:22.487Z,72.70
2023-02-10T19:23:49.992Z,72.60
2023-02-10T19:26:17.046Z,72.60
2023-02-10T19:28:44.094Z,72.70
2023-02-10T19:31:13.440Z,72.60
2023-02-10T19:33:46.151Z,72.70
2023-02-10T19:36:14.204Z,72.80
2023-02-10T19:38:41.808Z,72.70
2023-02-10T19:41:17.840Z,72.60
2023-02-10T19:43:45.886Z,72.60
2023-02-10T19:46:13.747Z,72.60
2023-02-10T19:48:40.776Z,72.60
2023-02-10T19:51:11.020Z,72.60
2023-02-10T19:53:38.825Z,72.60
2023-02-10T19:56:07.181Z,72.50
2023-02-10T19:58:34.979Z,72.50
2023-02-10T20:01:04.965Z,72.50
2023-02-10T20:03:35.690Z,72.40
2023-02-10T20:06:05.048Z,72.50
2023-02-10T20:08:32.473Z,72.30
2023-02-10T20:11:00.034Z,72.30
2023-02-10T20:13:27.411Z,72.30
2023-02-10T20:15:54.369Z,72.30
2023-02-10T20:18:22.184Z,72.30
2023-02-10T20:20:53.265Z,72.30
2023-02-10T20:23:20.425Z,72.20
2023-02-10T20:25:47.908Z,72.10
2023-02-10T20:28:15.222Z,72.20
2023-02-10T20:30:42.188Z,72.10
2023-02-10T20:33:09.089Z,72.20
2023-02-10T20:35:37.165Z,72.30
2023-02-10T20:38:05.187Z,72.30
2023-02-10T20:40:32.342Z,72.30
2023-02-10T20:42:59.153Z,72.30
2023-02-10T20:45:25.929Z,72.30
2023-02-10T20:47:52.778Z,72.40
2023-02-10T20:50:19.805Z,72.30
2023-02-10T20:52:47.937Z,72.30
2023-02-10T20:55:15.802Z,72.20
2023-02-10T20:57:42.726Z,72.20
2023-02-10T21:00:12.055Z,72.20
2023-02-10T21:02:39.063Z,72.20
2023-02-10T21:05:06.203Z,72.40
2023-02-10T21:07:32.972Z,72.50
2023-02-10T21:09:59.806Z,72.80
2023-02-10T21:12:26.586Z,72.90
2023-02-10T21:14:53.510Z,72.90
2023-02-10T21:17:20.335Z,73.00
2023-02-10T21:19:47.248Z,73.00
2023-02-10T21:22:14.059Z,73.10
2023-02-10T21:24:40.865Z,73.10
2023-02-10T21:27:07.734Z,73.10
2023-02-10T21:29:34.583Z,73.00
2023-02-10T21:32:01.479Z,73.20
2023-02-10T21:34:28.336Z,73.30
2023-02-10T21:36:55.232Z,73.40
2023-02-10T21:39:22.109Z,73.50
2023-02-10T21:41:49.702Z,73.50
2023-02-10T21:44:21.651Z,73.50
2023-02-10T21:46:54.864Z,73.60
2023-02-10T21:49:23.365Z,73.50
2023-02-10T21:51:52.552Z,73.60
2023-02-10T21:54:20.305Z,73.60
2023-02-10T21:56:47.951Z,73.70
2023-02-10T21:59:15.431Z,73.70
2023-02-10T22:01:43.023Z,73.60
2023-02-10T22:04:10.135Z,73.60
2023-02-10T22:06:39.521Z,73.50
2023-02-10T22:09:08.914Z,73.50
2023-02-10T22:11:36.113Z,73.40
2023-02-10T22:14:03.122Z,73.40
2023-02-10T22:16:30.227Z,73.50
2023-02-10T22:18:57.107Z,73.60
2023-02-10T22:21:27.334Z,73.60
2023-02-10T22:23:54.368Z,73.80
2023-02-10T22:26:23.466Z,73.90
2023-02-10T22:28:50.878Z,73.90
2023-02-10T22:31:23.489Z,73.90
2023-02-10T22:33:53.888Z,73.90
2023-02-10T22:36:21.500Z,73.90
2023-02-10T22:38:48.570Z,74.00
2023-02-10T22:41:19.095Z,73.90
2023-02-10T22:43:46.144Z,73.80
2023-02-10T22:46:14.503Z,73.80
2023-02-10T22:48:42.255Z,73.80
2023-02-10T22:51:17.554Z,73.80
2023-02-10T22:53:44.842Z,73.90
2023-02-10T22:56:17.444Z,74.00
2023-02-10T22:58:45.494Z,74.00
2023-02-10T23:01:13.464Z,74.10
2023-02-10T23:03:41.002Z,74.10
2023-02-10T23:06:07.919Z,74.30
2023-02-10T23:08:34.780Z,74.20
2023-02-10T23:11:01.562Z,74.20
2023-02-10T23:13:28.363Z,74.20
2023-02-10T23:15:56.509Z,74.10
2023-02-10T23:18:23.808Z,74.30
2023-02-10T23:20:51.770Z,74.30
2023-02-10T23:23:18.769Z,74.40
2023-02-10T23:25:51.242Z,74.40
2023-02-10T23:28:19.971Z,74.60
2023-02-10T23:30:47.260Z,74.60
2023-02-10T23:33:14.264Z,74.60
2023-02-10T23:35:46.377Z,74.70
2023-02-10T23:38:14.207Z,74.80
2023-02-10T23:40:41.232Z,74.90
2023-02-10T23:43:08.968Z,74.90
2023-02-10T23:45:37.168Z,75.10
2023-02-10T23:48:06.068Z,75.10
2023-02-10T23:50:33.319Z,75.10
2023-02-10T23:53:00.400Z,75.30
2023-02-10T23:55:27.206Z,75.30
2023-02-10T23:57:54.161Z,75.50
